Xanthos — A8FJ4 — position and weather

sailwx.info

Track history (hours):
 
Tides and Currents Weather Stations Pressure Air Temp Water Temp Dewpoint Dewpoint Depression Visibility Wind Speed Wind Dir Waves Ship Positions

Xanthos

Last reported at 2018-Jun-12 04:53 UTC. Time now 2018-Jun-22 14:52 UTC.
Position N 27°10' W 115°22'.
Warning: this ship's position is 10 days out of date.

Length 213 m; draft 8 m.

Type: Tanker. MMSI: 636012425.

Date/timePositionNaut miles runAvg speedWind from/ knotsBaromVisibWave heightAir tempDewpointWater temp
2018-Jun-12 04:53N 27°10' W 115°22'4 7.7
2018-Jun-12 04:18N 27°14' W 115°22'3 7.6
2018-Jun-12 03:57N 27°17' W 115°22'3 7.6
2018-Jun-12 03:30N 27°20' W 115°23'8 7.7
2018-Jun-12 02:28N 27°28' W 115°23'4 8.6
2018-Jun-12 02:00N 27°31' W 115°26'4 8.5
2018-Jun-12 01:30N 27°35' W 115°29'6 8.2
2018-Jun-12 00:49N 27°39' W 115°33'5 8.2
2018-Jun-12 00:15N 27°43' W 115°36'2 8.2
2018-Jun-12 00:00N 27°45' W 115°38'9 7.8
2018-Jun-11 22:49N 27°52' W 115°44'116 7.9
2018-Jun-11 08:07N 29°42' W 116°28'1 8.1
2018-Jun-11 08:00N 29°42' W 116°29'55 8.3
2018-Jun-11 01:23N 30°35' W 116°49'118 7.8
2018-Jun-10 10:08N 32°27' W 117°34'211.5
2018-Jun-10 10:00N 32°28' W 117°35'611.7
2018-Jun-10 09:30N 32°34' W 117°37'510.6
2018-Jun-10 09:00N 32°38' W 117°40'4 8.1
2018-Jun-10 08:30N 32°42' W 117°42'4 8.1
2018-Jun-10 08:00N 32°46' W 117°44'4 8.1
2018-Jun-10 07:30N 32°49' W 117°46'4 8.2
2018-Jun-10 07:00N 32°53' W 117°48'4 8.1
2018-Jun-10 06:30N 32°57' W 117°50'4 7.9
2018-Jun-10 06:00N 33°00' W 117°52'4 7.9
2018-Jun-10 05:30N 33°04' W 117°54'4 8.0
2018-Jun-10 05:00N 33°07' W 117°57'4 8.0
2018-Jun-10 04:30N 33°10' W 117°60'4 7.9
2018-Jun-10 04:00N 33°14' W 118°03'4 8.1
2018-Jun-10 03:30N 33°17' W 118°05'4 8.0
2018-Jun-10 03:01N 33°21' W 118°07'4 7.7
2018-Jun-10 02:29N 33°24' W 118°09'4 7.9
2018-Jun-10 02:00N 33°28' W 118°10'4 7.9
2018-Jun-10 01:31N 33°32' W 118°12'4 7.6
2018-Jun-10 01:00N 33°35' W 118°13'3 6.5
2018-Jun-10 00:31N 33°38' W 118°10'3 5.9
2018-Jun-10 00:01N 33°39' W 118°07'0 0.3
2018-Jun-09 23:22N 33°39' W 118°07'0 0.0
2018-Jun-09 22:58N 33°39' W 118°07'0 0.0
2018-Jun-09 22:28N 33°39' W 118°07'0 0.0
2018-Jun-09 21:58N 33°39' W 118°07'0 0.0
2018-Jun-09 21:28N 33°39' W 118°07'0 0.0
2018-Jun-09 20:58N 33°39' W 118°07'0 0.0
2018-Jun-09 20:28N 33°39' W 118°07'0 0.0
2018-Jun-09 19:58N 33°39' W 118°07'0 0.0
2018-Jun-09 19:28N 33°39' W 118°07'0 0.0
2018-Jun-09 18:58N 33°39' W 118°07'0 0.0
2018-Jun-09 18:28N 33°39' W 118°07'0 0.0
2018-Jun-09 17:58N 33°39' W 118°07'0 0.0
2018-Jun-09 17:28N 33°39' W 118°07'0 0.0
2018-Jun-09 16:58N 33°39' W 118°07'0 0.0
2018-Jun-09 16:28N 33°39' W 118°07'0 0.2
2018-Jun-09 15:58N 33°39' W 118°07'2 4.3
2018-Jun-09 15:31N 33°40' W 118°09'6 4.3
2018-Jun-09 14:12N 33°44' W 118°14'0 0.0
2018-Jun-09 13:51N 33°44' W 118°14'0 0.0
2018-Jun-09 13:21N 33°44' W 118°14'0 0.0
2018-Jun-09 13:00N 33°44' W 118°14'0 0.0
2018-Jun-09 12:30N 33°44' W 118°14'0 0.0
2018-Jun-09 11:57N 33°44' W 118°14'0 0.0
2018-Jun-09 11:30N 33°44' W 118°14'0 0.0
2018-Jun-09 11:00N 33°44' W 118°14'0 0.0
2018-Jun-09 10:30N 33°44' W 118°14'0 0.0
2018-Jun-09 10:00N 33°44' W 118°14'0 0.0
2018-Jun-09 09:30N 33°44' W 118°14'0 0.0
2018-Jun-09 09:00N 33°44' W 118°14'0 0.0
2018-Jun-09 08:30N 33°44' W 118°14'0 0.1
2018-Jun-09 08:00N 33°44' W 118°14'0 0.2
2018-Jun-09 07:30N 33°44' W 118°13'0 0.2
2018-Jun-09 07:00N 33°44' W 118°13'2 3.1
2018-Jun-09 06:30N 33°46' W 118°13'1 1.1
2018-Jun-09 06:01N 33°46' W 118°13'0 0.0
2018-Jun-09 05:25N 33°46' W 118°13'0 0.0
2018-Jun-09 04:58N 33°46' W 118°13'0 0.0
2018-Jun-09 04:28N 33°46' W 118°13'0 0.0
2018-Jun-09 03:58N 33°46' W 118°13'0 0.0
2018-Jun-09 03:19N 33°46' W 118°13'0 0.0
2018-Jun-09 02:46N 33°46' W 118°13'0 0.0
2018-Jun-09 02:28N 33°46' W 118°13'0 0.0
2018-Jun-09 01:49N 33°46' W 118°13'0 0.0
2018-Jun-09 01:28N 33°46' W 118°13'0 0.0
2018-Jun-09 00:58N 33°46' W 118°13'0 0.0
2018-Jun-09 00:25N 33°46' W 118°13'0 0.0
2018-Jun-08 23:58N 33°46' W 118°13'0 0.0
2018-Jun-08 23:25N 33°46' W 118°13'0 0.0
2018-Jun-08 22:55N 33°46' W 118°13'0 0.0
2018-Jun-08 22:25N 33°46' W 118°13'0 0.0
2018-Jun-08 21:49N 33°46' W 118°13'0 0.0
2018-Jun-08 21:28N 33°46' W 118°13'0 0.0
2018-Jun-08 20:43N 33°46' W 118°13'0 0.0
2018-Jun-08 20:28N 33°46' W 118°13'0 0.0
2018-Jun-08 19:55N 33°46' W 118°13'0 0.0
2018-Jun-08 19:25N 33°46' W 118°13'0 0.0
2018-Jun-08 18:52N 33°46' W 118°13'0 0.0
2018-Jun-08 18:19N 33°46' W 118°13'0 0.0
2018-Jun-08 17:46N 33°46' W 118°13'0 0.0
2018-Jun-08 17:28N 33°46' W 118°13'0 0.0
2018-Jun-08 16:58N 33°46' W 118°13'0 0.0
2018-Jun-08 16:25N 33°46' W 118°13'0 0.0
2018-Jun-08 15:58N 33°46' W 118°13'0 0.0
2018-Jun-08 15:25N 33°46' W 118°13'0 0.0
2018-Jun-08 14:58N 33°46' W 118°13'0 0.0
2018-Jun-08 14:25N 33°46' W 118°13'0 0.0
2018-Jun-08 13:58N 33°46' W 118°13'0 0.0
2018-Jun-08 13:28N 33°46' W 118°13'0 0.0
2018-Jun-08 12:58N 33°46' W 118°13'0 0.0
2018-Jun-08 12:19N 33°46' W 118°13'0 0.0
2018-Jun-08 11:58N 33°46' W 118°13'0 0.0
2018-Jun-08 11:25N 33°46' W 118°13'0 0.0
2018-Jun-08 10:52N 33°46' W 118°13'0 0.0
2018-Jun-08 10:25N 33°46' W 118°13'0 0.0
2018-Jun-08 09:58N 33°46' W 118°13'0 0.0
2018-Jun-08 09:25N 33°46' W 118°13'0 0.0
2018-Jun-08 08:58N 33°46' W 118°13'0 0.0
2018-Jun-08 08:28N 33°46' W 118°13'0 0.0
2018-Jun-08 07:52N 33°46' W 118°13'0 0.0
2018-Jun-08 07:19N 33°46' W 118°13'0 0.0
2018-Jun-08 06:58N 33°46' W 118°13'0 0.0
2018-Jun-08 06:28N 33°46' W 118°13'0 0.0
2018-Jun-08 05:58N 33°46' W 118°13'0 0.0
2018-Jun-08 05:28N 33°46' W 118°13'0 0.0
2018-Jun-08 04:58N 33°46' W 118°13'0 0.0
2018-Jun-08 04:25N 33°46' W 118°13'0 0.0
2018-Jun-08 03:55N 33°46' W 118°13'0 0.0
2018-Jun-08 03:19N 33°46' W 118°13'0 0.0
2018-Jun-08 02:58N 33°46' W 118°13'0 0.0
2018-Jun-08 02:22N 33°46' W 118°13'0 0.0
2018-Jun-08 01:52N 33°46' W 118°13'0 0.0
2018-Jun-08 01:25N 33°46' W 118°13'0 0.0
2018-Jun-08 00:52N 33°46' W 118°13'0 0.0
2018-Jun-08 00:28N 33°46' W 118°13'0 0.0
2018-Jun-07 23:58N 33°46' W 118°13'0 0.0
2018-Jun-07 23:25N 33°46' W 118°13'0 0.0
2018-Jun-07 22:58N 33°46' W 118°13'0 0.0
2018-Jun-07 22:25N 33°46' W 118°13'0 0.0
2018-Jun-07 21:55N 33°46' W 118°13'0 0.0
2018-Jun-07 21:28N 33°46' W 118°13'0 0.0
2018-Jun-07 20:58N 33°46' W 118°13'0 0.0
2018-Jun-07 20:28N 33°46' W 118°13'0 0.0
2018-Jun-07 19:58N 33°46' W 118°13'0 0.0
2018-Jun-07 19:28N 33°46' W 118°13'0 0.0
2018-Jun-07 18:55N 33°46' W 118°13'0 0.0
2018-Jun-07 18:25N 33°46' W 118°13'0 0.0
2018-Jun-07 17:58N 33°46' W 118°13'0 0.0
2018-Jun-07 17:28N 33°46' W 118°13'0 0.0
2018-Jun-07 16:58N 33°46' W 118°13'0 0.0
2018-Jun-07 16:25N 33°46' W 118°13'0 0.0
2018-Jun-07 15:55N 33°46' W 118°13'0 0.0
2018-Jun-07 15:19N 33°46' W 118°13'0 0.0
2018-Jun-07 14:58N 33°46' W 118°13'0 0.0
2018-Jun-07 14:28N 33°46' W 118°13'0 0.0
2018-Jun-07 13:58N 33°46' W 118°13'0 0.0
2018-Jun-07 13:28N 33°46' W 118°13'0 0.0
2018-Jun-07 12:52N 33°46' W 118°13'0 0.0
2018-Jun-07 12:28N 33°46' W 118°13'0 0.0
2018-Jun-07 11:58N 33°46' W 118°13'0 0.0
2018-Jun-07 11:19N 33°46' W 118°13'0 0.0
2018-Jun-07 10:58N 33°46' W 118°13'0 0.0
2018-Jun-07 10:28N 33°46' W 118°13'0 0.0
2018-Jun-07 09:58N 33°46' W 118°13'0 0.0
2018-Jun-07 09:25N 33°46' W 118°13'0 0.0
2018-Jun-07 08:55N 33°46' W 118°13'0 0.0
2018-Jun-07 08:19N 33°46' W 118°13'0 0.0
2018-Jun-07 07:55N 33°46' W 118°13'0 0.0
2018-Jun-07 07:19N 33°46' W 118°13'0 0.0
2018-Jun-07 06:49N 33°46' W 118°13'0 0.0
2018-Jun-07 06:22N 33°46' W 118°13'0 0.0
2018-Jun-07 05:58N 33°46' W 118°13'0 0.0
2018-Jun-07 05:04N 33°46' W 118°13'0 0.0
2018-Jun-07 04:55N 33°46' W 118°13'0 0.0
2018-Jun-07 04:13N 33°46' W 118°13'0 0.0
2018-Jun-07 03:58N 33°46' W 118°13'0 0.0
2018-Jun-07 03:28N 33°46' W 118°13'0 0.0
2018-Jun-07 02:58N 33°46' W 118°13'0 0.0
2018-Jun-07 02:28N 33°46' W 118°13'0 0.0
2018-Jun-07 01:58N 33°46' W 118°13'0 0.0
2018-Jun-07 01:28N 33°46' W 118°13'0 0.0
2018-Jun-07 00:58N 33°46' W 118°13'0 0.0
2018-Jun-07 00:25N 33°46' W 118°13'0 0.0
2018-Jun-06 23:55N 33°46' W 118°13'0 0.0
2018-Jun-06 23:28N 33°46' W 118°13'0 0.0
2018-Jun-06 22:58N 33°46' W 118°13'0 0.0
2018-Jun-06 22:28N 33°46' W 118°13'0 0.0
2018-Jun-06 21:58N 33°46' W 118°13'0 0.0
2018-Jun-06 21:28N 33°46' W 118°13'0 0.0
2018-Jun-06 20:58N 33°46' W 118°13'0 0.0
2018-Jun-06 20:16N 33°46' W 118°13'0 0.0
2018-Jun-06 19:58N 33°46' W 118°13'0 0.0
2018-Jun-06 19:10N 33°46' W 118°13'0 0.0
2018-Jun-06 18:58N 33°46' W 118°13'0 0.0
2018-Jun-06 18:25N 33°46' W 118°13'0 0.0
2018-Jun-06 17:49N 33°46' W 118°13'0 0.0
2018-Jun-06 17:16N 33°46' W 118°13'0 0.0
2018-Jun-06 16:58N 33°46' W 118°13'0 0.0
2018-Jun-06 16:22N 33°46' W 118°13'0 0.0
2018-Jun-06 15:58N 33°46' W 118°13'0 0.0
2018-Jun-06 15:22N 33°46' W 118°13'0 0.0
2018-Jun-06 14:59N 33°46' W 118°13'0 0.1
2018-Jun-06 14:30N 33°46' W 118°13'1 2.5
2018-Jun-06 14:00N 33°45' W 118°13'2 3.3
2018-Jun-06 13:31N 33°44' W 118°12'2 3.1
2018-Jun-06 13:00N 33°42' W 118°11'2 4.7
2018-Jun-06 12:30N 33°40' W 118°10'1 1.6
2018-Jun-06 12:00N 33°39' W 118°10'4 8.5
2018-Jun-06 11:29N 33°35' W 118°09'610.7
2018-Jun-06 10:56N 33°29' W 118°07'510.9
2018-Jun-06 10:29N 33°25' W 118°05'611.0
2018-Jun-06 09:53N 33°18' W 118°03'3 8.3
2018-Jun-06 09:30N 33°16' W 118°01'2 3.8
2018-Jun-06 08:55N 33°14' W 118°03'410.9
2018-Jun-06 08:30N 33°10' W 118°04'611.2
2018-Jun-06 08:00N 33°04' W 118°04'511.2
2018-Jun-06 07:30N 32°58' W 118°04'611.3
2018-Jun-06 07:00N 32°53' W 118°05'811.2
2018-Jun-06 06:18N 32°45' W 118°06'910.6
2018-Jun-06 05:25N 32°37' W 118°12'611.0
2018-Jun-06 04:55N 32°36' W 118°19'1610.4
2018-Jun-06 03:24N 32°26' W 118°34'410.8
2018-Jun-06 02:59N 32°22' W 118°36'510.7
2018-Jun-06 02:30N 32°18' W 118°38'610.5
2018-Jun-06 01:56N 32°12' W 118°41'410.2
2018-Jun-06 01:30N 32°08' W 118°43'610.2
2018-Jun-06 00:57N 32°03' W 118°46'5 9.9
2018-Jun-06 00:30N 31°59' W 118°48'5 9.7
2018-Jun-06 00:00N 31°55' W 118°50'5 9.6
2018-Jun-05 23:30N 31°50' W 118°53'5 9.6
2018-Jun-05 23:01N 31°46' W 118°55'5 9.5
2018-Jun-05 22:30N 31°41' W 118°57'5 9.4
2018-Jun-05 22:00N 31°37' W 118°58'5 8.8
2018-Jun-05 21:27N 31°32' W 118°60'4 1.4
2018-Jun-05 18:18N 31°29' W 119°03'1 1.6
2018-Jun-05 17:59N 31°28' W 119°04'1 0.5
2018-Jun-05 16:59N 31°29' W 119°04'2 2.5
2018-Jun-05 16:12N 31°30' W 119°05'27 2.5
2018-Jun-05 05:26N 31°54' W 119°20'30 2.9
2018-Jun-04 19:07N 32°14' W 119°46'3 3.1
2018-Jun-04 18:01N 32°17' W 119°48'0 1.8
2018-Jun-04 17:55N 32°17' W 119°49'4 2.6
2018-Jun-04 16:25N 32°19' W 119°53'1610.9
2018-Jun-04 14:54N 32°34' W 120°02'513.1
2018-Jun-04 14:31N 32°38' W 120°05'813.1
2018-Jun-04 13:54N 32°45' W 120°10'713.2
2018-Jun-04 13:23N 32°51' W 120°14'513.4
2018-Jun-04 13:00N 32°56' W 120°17'713.5
2018-Jun-04 12:30N 33°02' W 120°21'714.3
2018-Jun-04 12:01N 33°08' W 120°25'814.3
2018-Jun-04 11:26N 33°15' W 120°29'714.0
2018-Jun-04 10:58N 33°21' W 120°33'714.0
2018-Jun-04 10:29N 33°27' W 120°37'713.5
2018-Jun-04 10:00N 33°32' W 120°41'713.4
2018-Jun-04 09:30N 33°38' W 120°45'713.6
2018-Jun-04 09:00N 33°44' W 120°49'713.5
2018-Jun-04 08:29N 33°50' W 120°53'613.3
2018-Jun-04 08:00N 33°56' W 120°56'713.3
2018-Jun-04 07:30N 34°02' W 120°60'713.4
2018-Jun-04 07:00N 34°08' W 121°04'612.9
2018-Jun-04 06:30N 34°13' W 121°07'612.4
2018-Jun-04 06:00N 34°19' W 121°11'612.6
2018-Jun-04 05:30N 34°24' W 121°15'813.3
2018-Jun-04 04:54N 34°31' W 121°20'512.9
2018-Jun-04 04:30N 34°36' W 121°23'713.3
2018-Jun-04 04:00N 34°42' W 121°27'713.2
2018-Jun-04 03:30N 34°48' W 121°30'713.1
2018-Jun-04 03:00N 34°53' W 121°34'713.0
2018-Jun-04 02:30N 34°59' W 121°38'712.9
2018-Jun-04 02:00N 35°05' W 121°42'712.9
2018-Jun-04 01:29N 35°10' W 121°46'613.1
2018-Jun-04 01:00N 35°16' W 121°50'713.2
2018-Jun-04 00:30N 35°22' W 121°53'713.1
2018-Jun-04 00:00N 35°28' W 121°57'7113.1
2018-Jun-03 18:38N 36°30' W 122°38'213.1
2018-Jun-03 18:30N 36°31' W 122°39'713.2
2018-Jun-03 18:00N 36°37' W 122°43'713.4
2018-Jun-03 17:30N 36°43' W 122°47'713.3
2018-Jun-03 16:58N 36°49' W 122°52'713.2
2018-Jun-03 16:26N 36°56' W 122°55'613.1
2018-Jun-03 16:00N 37°01' W 122°56'713.4
2018-Jun-03 15:30N 37°08' W 122°59'713.3
2018-Jun-03 15:00N 37°14' W 123°03'713.0
2018-Jun-03 14:30N 37°20' W 123°05'612.8
2018-Jun-03 14:00N 37°26' W 123°08'611.6
2018-Jun-03 13:30N 37°31' W 123°06'510.1
2018-Jun-03 13:00N 37°35' W 123°02'510.2
2018-Jun-03 12:30N 37°38' W 122°56'510.3
2018-Jun-03 12:00N 37°41' W 122°51'5 9.8
2018-Jun-03 11:30N 37°43' W 122°45'5 9.3
2018-Jun-03 11:00N 37°45' W 122°40'510.0
2018-Jun-03 10:30N 37°47' W 122°35'510.6
2018-Jun-03 10:00N 37°49' W 122°28'4 8.1
2018-Jun-03 09:30N 37°52' W 122°25'5 9.6
2018-Jun-03 09:00N 37°57' W 122°27'5 9.7
2018-Jun-03 08:30N 38°01' W 122°24'5 9.7
2018-Jun-03 08:00N 38°03' W 122°18'510.8
2018-Jun-03 07:30N 38°03' W 122°11'3 1.3
2018-Jun-03 05:05N 38°02' W 122°08'0 0.0
2018-Jun-03 04:59N 38°02' W 122°08'0 0.0
2018-Jun-03 04:23N 38°02' W 122°08'0 0.0
2018-Jun-03 03:59N 38°02' W 122°08'0 0.0
2018-Jun-03 03:29N 38°02' W 122°08'0 0.0
2018-Jun-03 02:59N 38°02' W 122°08'0 0.0
2018-Jun-03 02:29N 38°02' W 122°08'0 0.0
2018-Jun-03 01:59N 38°02' W 122°08'0 0.0
2018-Jun-02 11:10N 38°02' W 122°08'0 0.0
2018-Jun-02 11:00N 38°02' W 122°08'0 0.8
2018-Jun-02 10:30N 38°02' W 122°08'3 5.9
2018-Jun-02 09:56N 38°04' W 122°12'4 9.3
2018-Jun-02 09:30N 38°03' W 122°17'5 9.5
2018-Jun-02 09:00N 38°02' W 122°23'3 6.9
2018-Jun-02 08:30N 37°59' W 122°26'4 8.2
2018-Jun-02 08:00N 37°55' W 122°27'5 9.8
2018-Jun-02 07:30N 37°51' W 122°24'4 8.2
2018-Jun-02 07:00N 37°47' W 122°21'4 8.2
2018-Jun-02 06:30N 37°43' W 122°20'1 1.2
2018-Jun-02 05:59N 37°43' W 122°20'0 0.1
2018-Jun-02 05:29N 37°43' W 122°20'0 0.1
2018-Jun-02 04:59N 37°43' W 122°20'  
Track history (hours):
 
Tides and Currents Weather Stations Pressure Air Temp Water Temp Dewpoint Dewpoint Depression Visibility Wind Speed Wind Dir Waves Ship Positions

Xanthos

Last reported at 2018-Jun-12 04:53 UTC. Time now 2018-Jun-22 14:52 UTC.
Position N 27°10' W 115°22'.
Warning: this ship's position is 10 days out of date.

Length 213 m; draft 8 m.

Type: Tanker. MMSI: 636012425.

Date/timePositionNaut miles runAvg speedWind from/ knotsBaromVisibWave heightAir tempDewpointWater temp
2018-Jun-12 04:53N 27°10' W 115°22'4 7.7
2018-Jun-12 04:18N 27°14' W 115°22'3 7.6
2018-Jun-12 03:57N 27°17' W 115°22'3 7.6
2018-Jun-12 03:30N 27°20' W 115°23'8 7.7
2018-Jun-12 02:28N 27°28' W 115°23'4 8.6
2018-Jun-12 02:00N 27°31' W 115°26'4 8.5
2018-Jun-12 01:30N 27°35' W 115°29'6 8.2
2018-Jun-12 00:49N 27°39' W 115°33'5 8.2
2018-Jun-12 00:15N 27°43' W 115°36'2 8.2
2018-Jun-12 00:00N 27°45' W 115°38'9 7.8
2018-Jun-11 22:49N 27°52' W 115°44'116 7.9
2018-Jun-11 08:07N 29°42' W 116°28'1 8.1
2018-Jun-11 08:00N 29°42' W 116°29'55 8.3
2018-Jun-11 01:23N 30°35' W 116°49'118 7.8
2018-Jun-10 10:08N 32°27' W 117°34'211.5
2018-Jun-10 10:00N 32°28' W 117°35'611.7
2018-Jun-10 09:30N 32°34' W 117°37'510.6
2018-Jun-10 09:00N 32°38' W 117°40'4 8.1
2018-Jun-10 08:30N 32°42' W 117°42'4 8.1
2018-Jun-10 08:00N 32°46' W 117°44'4 8.1
2018-Jun-10 07:30N 32°49' W 117°46'4 8.2
2018-Jun-10 07:00N 32°53' W 117°48'4 8.1
2018-Jun-10 06:30N 32°57' W 117°50'4 7.9
2018-Jun-10 06:00N 33°00' W 117°52'4 7.9
2018-Jun-10 05:30N 33°04' W 117°54'4 8.0
2018-Jun-10 05:00N 33°07' W 117°57'4 8.0
2018-Jun-10 04:30N 33°10' W 117°60'4 7.9
2018-Jun-10 04:00N 33°14' W 118°03'4 8.1
2018-Jun-10 03:30N 33°17' W 118°05'4 8.0
2018-Jun-10 03:01N 33°21' W 118°07'4 7.7
2018-Jun-10 02:29N 33°24' W 118°09'4 7.9
2018-Jun-10 02:00N 33°28' W 118°10'4 7.9
2018-Jun-10 01:31N 33°32' W 118°12'4 7.6
2018-Jun-10 01:00N 33°35' W 118°13'3 6.5
2018-Jun-10 00:31N 33°38' W 118°10'3 5.9
2018-Jun-10 00:01N 33°39' W 118°07'0 0.3
2018-Jun-09 23:22N 33°39' W 118°07'0 0.0
2018-Jun-09 22:58N 33°39' W 118°07'0 0.0
2018-Jun-09 22:28N 33°39' W 118°07'0 0.0
2018-Jun-09 21:58N 33°39' W 118°07'0 0.0
2018-Jun-09 21:28N 33°39' W 118°07'0 0.0
2018-Jun-09 20:58N 33°39' W 118°07'0 0.0
2018-Jun-09 20:28N 33°39' W 118°07'0 0.0
2018-Jun-09 19:58N 33°39' W 118°07'0 0.0
2018-Jun-09 19:28N 33°39' W 118°07'0 0.0
2018-Jun-09 18:58N 33°39' W 118°07'0 0.0
2018-Jun-09 18:28N 33°39' W 118°07'0 0.0
2018-Jun-09 17:58N 33°39' W 118°07'0 0.0
2018-Jun-09 17:28N 33°39' W 118°07'0 0.0
2018-Jun-09 16:58N 33°39' W 118°07'0 0.0
2018-Jun-09 16:28N 33°39' W 118°07'0 0.2
2018-Jun-09 15:58N 33°39' W 118°07'2 4.3
2018-Jun-09 15:31N 33°40' W 118°09'6 4.3
2018-Jun-09 14:12N 33°44' W 118°14'0 0.0
2018-Jun-09 13:51N 33°44' W 118°14'0 0.0
2018-Jun-09 13:21N 33°44' W 118°14'0 0.0
2018-Jun-09 13:00N 33°44' W 118°14'0 0.0
2018-Jun-09 12:30N 33°44' W 118°14'0 0.0
2018-Jun-09 11:57N 33°44' W 118°14'0 0.0
2018-Jun-09 11:30N 33°44' W 118°14'0 0.0
2018-Jun-09 11:00N 33°44' W 118°14'0 0.0
2018-Jun-09 10:30N 33°44' W 118°14'0 0.0
2018-Jun-09 10:00N 33°44' W 118°14'0 0.0
2018-Jun-09 09:30N 33°44' W 118°14'0 0.0
2018-Jun-09 09:00N 33°44' W 118°14'0 0.0
2018-Jun-09 08:30N 33°44' W 118°14'0 0.1
2018-Jun-09 08:00N 33°44' W 118°14'0 0.2
2018-Jun-09 07:30N 33°44' W 118°13'0 0.2
2018-Jun-09 07:00N 33°44' W 118°13'2 3.1
2018-Jun-09 06:30N 33°46' W 118°13'1 1.1
2018-Jun-09 06:01N 33°46' W 118°13'0 0.0
2018-Jun-09 05:25N 33°46' W 118°13'0 0.0
2018-Jun-09 04:58N 33°46' W 118°13'0 0.0
2018-Jun-09 04:28N 33°46' W 118°13'0 0.0
2018-Jun-09 03:58N 33°46' W 118°13'0 0.0
2018-Jun-09 03:19N 33°46' W 118°13'0 0.0
2018-Jun-09 02:46N 33°46' W 118°13'0 0.0
2018-Jun-09 02:28N 33°46' W 118°13'0 0.0
2018-Jun-09 01:49N 33°46' W 118°13'0 0.0
2018-Jun-09 01:28N 33°46' W 118°13'0 0.0
2018-Jun-09 00:58N 33°46' W 118°13'0 0.0
2018-Jun-09 00:25N 33°46' W 118°13'0 0.0
2018-Jun-08 23:58N 33°46' W 118°13'0 0.0
2018-Jun-08 23:25N 33°46' W 118°13'0 0.0
2018-Jun-08 22:55N 33°46' W 118°13'0 0.0
2018-Jun-08 22:25N 33°46' W 118°13'0 0.0
2018-Jun-08 21:49N 33°46' W 118°13'0 0.0
2018-Jun-08 21:28N 33°46' W 118°13'0 0.0
2018-Jun-08 20:43N 33°46' W 118°13'0 0.0
2018-Jun-08 20:28N 33°46' W 118°13'0 0.0
2018-Jun-08 19:55N 33°46' W 118°13'0 0.0
2018-Jun-08 19:25N 33°46' W 118°13'0 0.0
2018-Jun-08 18:52N 33°46' W 118°13'0 0.0
2018-Jun-08 18:19N 33°46' W 118°13'0 0.0
2018-Jun-08 17:46N 33°46' W 118°13'0 0.0
2018-Jun-08 17:28N 33°46' W 118°13'0 0.0
2018-Jun-08 16:58N 33°46' W 118°13'0 0.0
2018-Jun-08 16:25N 33°46' W 118°13'0 0.0
2018-Jun-08 15:58N 33°46' W 118°13'0 0.0
2018-Jun-08 15:25N 33°46' W 118°13'0 0.0
2018-Jun-08 14:58N 33°46' W 118°13'0 0.0
2018-Jun-08 14:25N 33°46' W 118°13'0 0.0
2018-Jun-08 13:58N 33°46' W 118°13'0 0.0
2018-Jun-08 13:28N 33°46' W 118°13'0 0.0
2018-Jun-08 12:58N 33°46' W 118°13'0 0.0
2018-Jun-08 12:19N 33°46' W 118°13'0 0.0
2018-Jun-08 11:58N 33°46' W 118°13'0 0.0
2018-Jun-08 11:25N 33°46' W 118°13'0 0.0
2018-Jun-08 10:52N 33°46' W 118°13'0 0.0
2018-Jun-08 10:25N 33°46' W 118°13'0 0.0
2018-Jun-08 09:58N 33°46' W 118°13'0 0.0
2018-Jun-08 09:25N 33°46' W 118°13'0 0.0
2018-Jun-08 08:58N 33°46' W 118°13'0 0.0
2018-Jun-08 08:28N 33°46' W 118°13'0 0.0
2018-Jun-08 07:52N 33°46' W 118°13'0 0.0
2018-Jun-08 07:19N 33°46' W 118°13'0 0.0
2018-Jun-08 06:58N 33°46' W 118°13'0 0.0
2018-Jun-08 06:28N 33°46' W 118°13'0 0.0
2018-Jun-08 05:58N 33°46' W 118°13'0 0.0
2018-Jun-08 05:28N 33°46' W 118°13'0 0.0
2018-Jun-08 04:58N 33°46' W 118°13'0 0.0
2018-Jun-08 04:25N 33°46' W 118°13'0 0.0
2018-Jun-08 03:55N 33°46' W 118°13'0 0.0
2018-Jun-08 03:19N 33°46' W 118°13'0 0.0
2018-Jun-08 02:58N 33°46' W 118°13'0 0.0
2018-Jun-08 02:22N 33°46' W 118°13'0 0.0
2018-Jun-08 01:52N 33°46' W 118°13'0 0.0
2018-Jun-08 01:25N 33°46' W 118°13'0 0.0
2018-Jun-08 00:52N 33°46' W 118°13'0 0.0
2018-Jun-08 00:28N 33°46' W 118°13'0 0.0
2018-Jun-07 23:58N 33°46' W 118°13'0 0.0
2018-Jun-07 23:25N 33°46' W 118°13'0 0.0
2018-Jun-07 22:58N 33°46' W 118°13'0 0.0
2018-Jun-07 22:25N 33°46' W 118°13'0 0.0
2018-Jun-07 21:55N 33°46' W 118°13'0 0.0
2018-Jun-07 21:28N 33°46' W 118°13'0 0.0
2018-Jun-07 20:58N 33°46' W 118°13'0 0.0
2018-Jun-07 20:28N 33°46' W 118°13'0 0.0
2018-Jun-07 19:58N 33°46' W 118°13'0 0.0
2018-Jun-07 19:28N 33°46' W 118°13'0 0.0
2018-Jun-07 18:55N 33°46' W 118°13'0 0.0
2018-Jun-07 18:25N 33°46' W 118°13'0 0.0
2018-Jun-07 17:58N 33°46' W 118°13'0 0.0
2018-Jun-07 17:28N 33°46' W 118°13'0 0.0
2018-Jun-07 16:58N 33°46' W 118°13'0 0.0
2018-Jun-07 16:25N 33°46' W 118°13'0 0.0
2018-Jun-07 15:55N 33°46' W 118°13'0 0.0
2018-Jun-07 15:19N 33°46' W 118°13'0 0.0
2018-Jun-07 14:58N 33°46' W 118°13'0 0.0
2018-Jun-07 14:28N 33°46' W 118°13'0 0.0
2018-Jun-07 13:58N 33°46' W 118°13'0 0.0
2018-Jun-07 13:28N 33°46' W 118°13'0 0.0
2018-Jun-07 12:52N 33°46' W 118°13'0 0.0
2018-Jun-07 12:28N 33°46' W 118°13'0 0.0
2018-Jun-07 11:58N 33°46' W 118°13'0 0.0
2018-Jun-07 11:19N 33°46' W 118°13'0 0.0
2018-Jun-07 10:58N 33°46' W 118°13'0 0.0
2018-Jun-07 10:28N 33°46' W 118°13'0 0.0
2018-Jun-07 09:58N 33°46' W 118°13'0 0.0
2018-Jun-07 09:25N 33°46' W 118°13'0 0.0
2018-Jun-07 08:55N 33°46' W 118°13'0 0.0
2018-Jun-07 08:19N 33°46' W 118°13'0 0.0
2018-Jun-07 07:55N 33°46' W 118°13'0 0.0
2018-Jun-07 07:19N 33°46' W 118°13'0 0.0
2018-Jun-07 06:49N 33°46' W 118°13'0 0.0
2018-Jun-07 06:22N 33°46' W 118°13'0 0.0
2018-Jun-07 05:58N 33°46' W 118°13'0 0.0
2018-Jun-07 05:04N 33°46' W 118°13'0 0.0
2018-Jun-07 04:55N 33°46' W 118°13'0 0.0
2018-Jun-07 04:13N 33°46' W 118°13'0 0.0
2018-Jun-07 03:58N 33°46' W 118°13'0 0.0
2018-Jun-07 03:28N 33°46' W 118°13'0 0.0
2018-Jun-07 02:58N 33°46' W 118°13'0 0.0
2018-Jun-07 02:28N 33°46' W 118°13'0 0.0
2018-Jun-07 01:58N 33°46' W 118°13'0 0.0
2018-Jun-07 01:28N 33°46' W 118°13'0 0.0
2018-Jun-07 00:58N 33°46' W 118°13'0 0.0
2018-Jun-07 00:25N 33°46' W 118°13'0 0.0
2018-Jun-06 23:55N 33°46' W 118°13'0 0.0
2018-Jun-06 23:28N 33°46' W 118°13'0 0.0
2018-Jun-06 22:58N 33°46' W 118°13'0 0.0
2018-Jun-06 22:28N 33°46' W 118°13'0 0.0
2018-Jun-06 21:58N 33°46' W 118°13'0 0.0
2018-Jun-06 21:28N 33°46' W 118°13'0 0.0
2018-Jun-06 20:58N 33°46' W 118°13'0 0.0
2018-Jun-06 20:16N 33°46' W 118°13'0 0.0
2018-Jun-06 19:58N 33°46' W 118°13'0 0.0
2018-Jun-06 19:10N 33°46' W 118°13'0 0.0
2018-Jun-06 18:58N 33°46' W 118°13'0 0.0
2018-Jun-06 18:25N 33°46' W 118°13'0 0.0
2018-Jun-06 17:49N 33°46' W 118°13'0 0.0
2018-Jun-06 17:16N 33°46' W 118°13'0 0.0
2018-Jun-06 16:58N 33°46' W 118°13'0 0.0
2018-Jun-06 16:22N 33°46' W 118°13'0 0.0
2018-Jun-06 15:58N 33°46' W 118°13'0 0.0
2018-Jun-06 15:22N 33°46' W 118°13'0 0.0
2018-Jun-06 14:59N 33°46' W 118°13'0 0.1
2018-Jun-06 14:30N 33°46' W 118°13'1 2.5
2018-Jun-06 14:00N 33°45' W 118°13'2 3.3
2018-Jun-06 13:31N 33°44' W 118°12'2 3.1
2018-Jun-06 13:00N 33°42' W 118°11'2 4.7
2018-Jun-06 12:30N 33°40' W 118°10'1 1.6
2018-Jun-06 12:00N 33°39' W 118°10'4 8.5
2018-Jun-06 11:29N 33°35' W 118°09'610.7
2018-Jun-06 10:56N 33°29' W 118°07'510.9
2018-Jun-06 10:29N 33°25' W 118°05'611.0
2018-Jun-06 09:53N 33°18' W 118°03'3 8.3
2018-Jun-06 09:30N 33°16' W 118°01'2 3.8
2018-Jun-06 08:55N 33°14' W 118°03'410.9
2018-Jun-06 08:30N 33°10' W 118°04'611.2
2018-Jun-06 08:00N 33°04' W 118°04'511.2
2018-Jun-06 07:30N 32°58' W 118°04'611.3
2018-Jun-06 07:00N 32°53' W 118°05'811.2
2018-Jun-06 06:18N 32°45' W 118°06'910.6
2018-Jun-06 05:25N 32°37' W 118°12'611.0
2018-Jun-06 04:55N 32°36' W 118°19'1610.4
2018-Jun-06 03:24N 32°26' W 118°34'410.8
2018-Jun-06 02:59N 32°22' W 118°36'510.7
2018-Jun-06 02:30N 32°18' W 118°38'610.5
2018-Jun-06 01:56N 32°12' W 118°41'410.2
2018-Jun-06 01:30N 32°08' W 118°43'610.2
2018-Jun-06 00:57N 32°03' W 118°46'5 9.9
2018-Jun-06 00:30N 31°59' W 118°48'5 9.7
2018-Jun-06 00:00N 31°55' W 118°50'5 9.6
2018-Jun-05 23:30N 31°50' W 118°53'5 9.6
2018-Jun-05 23:01N 31°46' W 118°55'5 9.5
2018-Jun-05 22:30N 31°41' W 118°57'5 9.4
2018-Jun-05 22:00N 31°37' W 118°58'5 8.8
2018-Jun-05 21:27N 31°32' W 118°60'4 1.4
2018-Jun-05 18:18N 31°29' W 119°03'1 1.6
2018-Jun-05 17:59N 31°28' W 119°04'1 0.5
2018-Jun-05 16:59N 31°29' W 119°04'2 2.5
2018-Jun-05 16:12N 31°30' W 119°05'27 2.5
2018-Jun-05 05:26N 31°54' W 119°20'30 2.9
2018-Jun-04 19:07N 32°14' W 119°46'3 3.1
2018-Jun-04 18:01N 32°17' W 119°48'0 1.8
2018-Jun-04 17:55N 32°17' W 119°49'4 2.6
2018-Jun-04 16:25N 32°19' W 119°53'1610.9
2018-Jun-04 14:54N 32°34' W 120°02'513.1
2018-Jun-04 14:31N 32°38' W 120°05'813.1
2018-Jun-04 13:54N 32°45' W 120°10'713.2
2018-Jun-04 13:23N 32°51' W 120°14'513.4
2018-Jun-04 13:00N 32°56' W 120°17'713.5
2018-Jun-04 12:30N 33°02' W 120°21'714.3
2018-Jun-04 12:01N 33°08' W 120°25'814.3
2018-Jun-04 11:26N 33°15' W 120°29'714.0
2018-Jun-04 10:58N 33°21' W 120°33'714.0
2018-Jun-04 10:29N 33°27' W 120°37'713.5
2018-Jun-04 10:00N 33°32' W 120°41'713.4
2018-Jun-04 09:30N 33°38' W 120°45'713.6
2018-Jun-04 09:00N 33°44' W 120°49'713.5
2018-Jun-04 08:29N 33°50' W 120°53'613.3
2018-Jun-04 08:00N 33°56' W 120°56'713.3
2018-Jun-04 07:30N 34°02' W 120°60'713.4
2018-Jun-04 07:00N 34°08' W 121°04'612.9
2018-Jun-04 06:30N 34°13' W 121°07'612.4
2018-Jun-04 06:00N 34°19' W 121°11'612.6
2018-Jun-04 05:30N 34°24' W 121°15'813.3
2018-Jun-04 04:54N 34°31' W 121°20'512.9
2018-Jun-04 04:30N 34°36' W 121°23'713.3
2018-Jun-04 04:00N 34°42' W 121°27'713.2
2018-Jun-04 03:30N 34°48' W 121°30'713.1
2018-Jun-04 03:00N 34°53' W 121°34'713.0
2018-Jun-04 02:30N 34°59' W 121°38'712.9
2018-Jun-04 02:00N 35°05' W 121°42'712.9
2018-Jun-04 01:29N 35°10' W 121°46'613.1
2018-Jun-04 01:00N 35°16' W 121°50'713.2
2018-Jun-04 00:30N 35°22' W 121°53'713.1
2018-Jun-04 00:00N 35°28' W 121°57'7113.1
2018-Jun-03 18:38N 36°30' W 122°38'213.1
2018-Jun-03 18:30N 36°31' W 122°39'713.2
2018-Jun-03 18:00N 36°37' W 122°43'713.4
2018-Jun-03 17:30N 36°43' W 122°47'713.3
2018-Jun-03 16:58N 36°49' W 122°52'713.2
2018-Jun-03 16:26N 36°56' W 122°55'613.1
2018-Jun-03 16:00N 37°01' W 122°56'713.4
2018-Jun-03 15:30N 37°08' W 122°59'713.3
2018-Jun-03 15:00N 37°14' W 123°03'713.0
2018-Jun-03 14:30N 37°20' W 123°05'612.8
2018-Jun-03 14:00N 37°26' W 123°08'611.6
2018-Jun-03 13:30N 37°31' W 123°06'510.1
2018-Jun-03 13:00N 37°35' W 123°02'510.2
2018-Jun-03 12:30N 37°38' W 122°56'510.3
2018-Jun-03 12:00N 37°41' W 122°51'5 9.8
2018-Jun-03 11:30N 37°43' W 122°45'5 9.3
2018-Jun-03 11:00N 37°45' W 122°40'510.0
2018-Jun-03 10:30N 37°47' W 122°35'510.6
2018-Jun-03 10:00N 37°49' W 122°28'4 8.1
2018-Jun-03 09:30N 37°52' W 122°25'5 9.6
2018-Jun-03 09:00N 37°57' W 122°27'5 9.7
2018-Jun-03 08:30N 38°01' W 122°24'5 9.7
2018-Jun-03 08:00N 38°03' W 122°18'510.8
2018-Jun-03 07:30N 38°03' W 122°11'3 1.3
2018-Jun-03 05:05N 38°02' W 122°08'0 0.0
2018-Jun-03 04:59N 38°02' W 122°08'0 0.0
2018-Jun-03 04:23N 38°02' W 122°08'0 0.0
2018-Jun-03 03:59N 38°02' W 122°08'0 0.0
2018-Jun-03 03:29N 38°02' W 122°08'0 0.0
2018-Jun-03 02:59N 38°02' W 122°08'0 0.0
2018-Jun-03 02:29N 38°02' W 122°08'0 0.0
2018-Jun-03 01:59N 38°02' W 122°08'0 0.0
2018-Jun-02 11:10N 38°02' W 122°08'0 0.0
2018-Jun-02 11:00N 38°02' W 122°08'0 0.8
2018-Jun-02 10:30N 38°02' W 122°08'3 5.9
2018-Jun-02 09:56N 38°04' W 122°12'4 9.3
2018-Jun-02 09:30N 38°03' W 122°17'5 9.5
2018-Jun-02 09:00N 38°02' W 122°23'3 6.9
2018-Jun-02 08:30N 37°59' W 122°26'4 8.2
2018-Jun-02 08:00N 37°55' W 122°27'5 9.8
2018-Jun-02 07:30N 37°51' W 122°24'4 8.2
2018-Jun-02 07:00N 37°47' W 122°21'4 8.2
2018-Jun-02 06:30N 37°43' W 122°20'1 1.2
2018-Jun-02 05:59N 37°43' W 122°20'0 0.1
2018-Jun-02 05:29N 37°43' W 122°20'0 0.1
2018-Jun-02 04:59N 37°43' W 122°20'  

Dump ship's entire track history